sensor_id;sensor_type;location;lat;lon;timestamp;P1;durP1;ratioP1;P2;durP2;ratioP2
62925;SDS011;55732;52.248;-0.844;2023-05-07T00:02:20;12.70;;;6.80;;
62925;SDS011;55732;52.248;-0.844;2023-05-07T00:04:46;8.60;;;6.70;;
62925;SDS011;55732;52.248;-0.844;2023-05-07T00:07:11;13.80;;;7.00;;
62925;SDS011;55732;52.248;-0.844;2023-05-07T00:09:37;9.00;;;6.50;;
62925;SDS011;55732;52.248;-0.844;2023-05-07T00:12:02;11.60;;;6.90;;
62925;SDS011;55732;52.248;-0.844;2023-05-07T00:14:28;11.00;;;6.50;;
62925;SDS011;55732;52.248;-0.844;2023-05-07T00:16:53;7.40;;;6.60;;
62925;SDS011;55732;52.248;-0.844;2023-05-07T00:19:18;10.30;;;6.80;;
62925;SDS011;55732;52.248;-0.844;2023-05-07T00:21:44;10.20;;;7.00;;
62925;SDS011;55732;52.248;-0.844;2023-05-07T00:24:09;9.90;;;7.20;;
62925;SDS011;55732;52.248;-0.844;2023-05-07T00:26:34;11.40;;;7.20;;
62925;SDS011;55732;52.248;-0.844;2023-05-07T00:29:00;10.20;;;6.70;;
62925;SDS011;55732;52.248;-0.844;2023-05-07T00:31:25;9.40;;;7.00;;
62925;SDS011;55732;52.248;-0.844;2023-05-07T00:33:50;9.80;;;6.80;;
62925;SDS011;55732;52.248;-0.844;2023-05-07T00:36:16;13.20;;;7.30;;
62925;SDS011;55732;52.248;-0.844;2023-05-07T00:38:41;8.40;;;6.30;;
62925;SDS011;55732;52.248;-0.844;2023-05-07T00:41:07;13.10;;;7.20;;
62925;SDS011;55732;52.248;-0.844;2023-05-07T00:43:32;10.90;;;7.30;;
62925;SDS011;55732;52.248;-0.844;2023-05-07T00:45:58;13.00;;;7.30;;
62925;SDS011;55732;52.248;-0.844;2023-05-07T00:48:23;10.80;;;7.00;;
62925;SDS011;55732;52.248;-0.844;2023-05-07T00:50:49;12.70;;;7.10;;
62925;SDS011;55732;52.248;-0.844;2023-05-07T00:53:15;13.00;;;6.90;;
62925;SDS011;55732;52.248;-0.844;2023-05-07T00:55:41;13.70;;;7.70;;
62925;SDS011;55732;52.248;-0.844;2023-05-07T00:58:07;9.00;;;6.70;;
62925;SDS011;55732;52.248;-0.844;2023-05-07T01:00:32;10.30;;;6.80;;
62925;SDS011;55732;52.248;-0.844;2023-05-07T01:02:57;12.70;;;7.00;;
62925;SDS011;55732;52.248;-0.844;2023-05-07T01:05:23;13.40;;;6.80;;
62925;SDS011;55732;52.248;-0.844;2023-05-07T01:07:51;9.50;;;6.90;;
62925;SDS011;55732;52.248;-0.844;2023-05-07T01:12:43;11.10;;;6.60;;
62925;SDS011;55732;52.248;-0.844;2023-05-07T01:15:10;13.50;;;7.30;;
62925;SDS011;55732;52.248;-0.844;2023-05-07T01:17:36;10.50;;;6.90;;
62925;SDS011;55732;52.248;-0.844;2023-05-07T01:20:05;11.30;;;7.20;;
62925;SDS011;55732;52.248;-0.844;2023-05-07T01:22:33;11.20;;;7.40;;
62925;SDS011;55732;52.248;-0.844;2023-05-07T01:25:01;13.30;;;7.40;;
62925;SDS011;55732;52.248;-0.844;2023-05-07T01:27:28;9.70;;;7.30;;
62925;SDS011;55732;52.248;-0.844;2023-05-07T01:29:53;10.50;;;7.10;;
62925;SDS011;55732;52.248;-0.844;2023-05-07T01:32:21;10.20;;;7.60;;
62925;SDS011;55732;52.248;-0.844;2023-05-07T01:34:52;9.10;;;7.50;;
62925;SDS011;55732;52.248;-0.844;2023-05-07T01:37:18;8.80;;;6.90;;
62925;SDS011;55732;52.248;-0.844;2023-05-07T01:39:46;9.70;;;7.90;;
62925;SDS011;55732;52.248;-0.844;2023-05-07T01:42:13;13.50;;;7.70;;
62925;SDS011;55732;52.248;-0.844;2023-05-07T01:44:39;12.20;;;8.20;;
62925;SDS011;55732;52.248;-0.844;2023-05-07T01:47:04;9.60;;;7.70;;
62925;SDS011;55732;52.248;-0.844;2023-05-07T01:49:31;10.80;;;8.30;;
62925;SDS011;55732;52.248;-0.844;2023-05-07T01:51:56;19.90;;;9.00;;
62925;SDS011;55732;52.248;-0.844;2023-05-07T01:54:26;12.40;;;8.50;;
62925;SDS011;55732;52.248;-0.844;2023-05-07T01:56:56;10.50;;;8.60;;
62925;SDS011;55732;52.248;-0.844;2023-05-07T01:59:21;10.60;;;8.80;;
62925;SDS011;55732;52.248;-0.844;2023-05-07T02:01:47;14.20;;;9.40;;
62925;SDS011;55732;52.248;-0.844;2023-05-07T02:04:12;12.10;;;8.90;;
62925;SDS011;55732;52.248;-0.844;2023-05-07T02:06:38;13.10;;;9.20;;
62925;SDS011;55732;52.248;-0.844;2023-05-07T02:09:03;15.30;;;9.70;;
62925;SDS011;55732;52.248;-0.844;2023-05-07T02:11:28;15.00;;;10.40;;
62925;SDS011;55732;52.248;-0.844;2023-05-07T02:13:54;14.30;;;10.00;;
62925;SDS011;55732;52.248;-0.844;2023-05-07T02:16:19;15.90;;;10.50;;
62925;SDS011;55732;52.248;-0.844;2023-05-07T02:18:46;12.70;;;10.50;;
62925;SDS011;55732;52.248;-0.844;2023-05-07T02:21:11;13.10;;;9.60;;
62925;SDS011;55732;52.248;-0.844;2023-05-07T02:23:36;13.70;;;10.50;;
62925;SDS011;55732;52.248;-0.844;2023-05-07T02:26:03;16.30;;;11.60;;
62925;SDS011;55732;52.248;-0.844;2023-05-07T02:28:29;16.00;;;11.20;;
62925;SDS011;55732;52.248;-0.844;2023-05-07T02:30:54;16.20;;;10.90;;
62925;SDS011;55732;52.248;-0.844;2023-05-07T02:33:20;17.40;;;11.50;;
62925;SDS011;55732;52.248;-0.844;2023-05-07T02:35:46;16.50;;;11.10;;
62925;SDS011;55732;52.248;-0.844;2023-05-07T02:38:11;19.10;;;12.10;;
62925;SDS011;55732;52.248;-0.844;2023-05-07T02:40:36;16.20;;;11.70;;
62925;SDS011;55732;52.248;-0.844;2023-05-07T02:43:05;17.80;;;12.30;;
62925;SDS011;55732;52.248;-0.844;2023-05-07T02:45:31;16.00;;;11.40;;
62925;SDS011;55732;52.248;-0.844;2023-05-07T02:47:57;17.50;;;12.10;;
62925;SDS011;55732;52.248;-0.844;2023-05-07T02:50:23;17.80;;;12.80;;
62925;SDS011;55732;52.248;-0.844;2023-05-07T02:52:48;18.60;;;12.60;;
62925;SDS011;55732;52.248;-0.844;2023-05-07T02:55:14;17.50;;;12.40;;
62925;SDS011;55732;52.248;-0.844;2023-05-07T02:57:39;19.70;;;13.30;;
62925;SDS011;55732;52.248;-0.844;2023-05-07T03:00:14;18.50;;;13.10;;
62925;SDS011;55732;52.248;-0.844;2023-05-07T03:02:44;17.10;;;12.50;;
62925;SDS011;55732;52.248;-0.844;2023-05-07T03:05:10;19.90;;;13.20;;
62925;SDS011;55732;52.248;-0.844;2023-05-07T03:07:37;20.60;;;12.90;;
62925;SDS011;55732;52.248;-0.844;2023-05-07T03:10:03;19.10;;;13.00;;
62925;SDS011;55732;52.248;-0.844;2023-05-07T03:12:29;19.90;;;13.70;;
62925;SDS011;55732;52.248;-0.844;2023-05-07T03:14:55;24.60;;;14.30;;
62925;SDS011;55732;52.248;-0.844;2023-05-07T03:17:21;19.30;;;13.60;;
62925;SDS011;55732;52.248;-0.844;2023-05-07T03:19:47;19.30;;;12.90;;
62925;SDS011;55732;52.248;-0.844;2023-05-07T03:22:12;23.10;;;15.40;;
62925;SDS011;55732;52.248;-0.844;2023-05-07T03:24:37;23.60;;;15.00;;
62925;SDS011;55732;52.248;-0.844;2023-05-07T03:27:03;20.70;;;13.30;;
62925;SDS011;55732;52.248;-0.844;2023-05-07T03:29:28;23.90;;;14.60;;
62925;SDS011;55732;52.248;-0.844;2023-05-07T03:31:53;24.60;;;15.10;;
62925;SDS011;55732;52.248;-0.844;2023-05-07T03:34:19;21.30;;;14.80;;
62925;SDS011;55732;52.248;-0.844;2023-05-07T03:36:50;26.60;;;15.20;;
62925;SDS011;55732;52.248;-0.844;2023-05-07T03:39:16;23.60;;;15.00;;
62925;SDS011;55732;52.248;-0.844;2023-05-07T03:41:41;19.80;;;13.50;;
62925;SDS011;55732;52.248;-0.844;2023-05-07T03:44:06;22.30;;;14.10;;
62925;SDS011;55732;52.248;-0.844;2023-05-07T03:46:32;22.90;;;14.60;;
62925;SDS011;55732;52.248;-0.844;2023-05-07T03:48:58;22.80;;;14.80;;
62925;SDS011;55732;52.248;-0.844;2023-05-07T03:51:23;24.00;;;15.20;;
62925;SDS011;55732;52.248;-0.844;2023-05-07T03:53:49;28.80;;;14.50;;
62925;SDS011;55732;52.248;-0.844;2023-05-07T03:56:18;25.00;;;15.30;;
62925;SDS011;55732;52.248;-0.844;2023-05-07T03:58:44;23.60;;;14.60;;
62925;SDS011;55732;52.248;-0.844;2023-05-07T04:01:09;26.30;;;15.40;;
62925;SDS011;55732;52.248;-0.844;2023-05-07T04:03:35;25.30;;;15.30;;
62925;SDS011;55732;52.248;-0.844;2023-05-07T04:06:00;21.30;;;14.50;;
62925;SDS011;55732;52.248;-0.844;2023-05-07T04:08:26;25.80;;;15.20;;
62925;SDS011;55732;52.248;-0.844;2023-05-07T04:10:57;25.30;;;16.00;;
62925;SDS011;55732;52.248;-0.844;2023-05-07T04:13:24;25.00;;;15.70;;
62925;SDS011;55732;52.248;-0.844;2023-05-07T04:15:50;26.00;;;15.30;;
62925;SDS011;55732;52.248;-0.844;2023-05-07T04:18:16;30.30;;;16.50;;
62925;SDS011;55732;52.248;-0.844;2023-05-07T04:20:42;31.70;;;16.30;;
62925;SDS011;55732;52.248;-0.844;2023-05-07T04:23:07;27.60;;;18.30;;
62925;SDS011;55732;52.248;-0.844;2023-05-07T04:25:33;30.40;;;15.80;;
62925;SDS011;55732;52.248;-0.844;2023-05-07T04:27:59;26.00;;;15.60;;
62925;SDS011;55732;52.248;-0.844;2023-05-07T04:30:25;25.40;;;16.10;;
62925;SDS011;55732;52.248;-0.844;2023-05-07T04:32:51;26.20;;;16.30;;
62925;SDS011;55732;52.248;-0.844;2023-05-07T04:35:17;25.20;;;15.80;;
62925;SDS011;55732;52.248;-0.844;2023-05-07T04:37:43;23.20;;;15.90;;
62925;SDS011;55732;52.248;-0.844;2023-05-07T04:40:09;27.00;;;14.90;;
62925;SDS011;55732;52.248;-0.844;2023-05-07T04:42:35;30.70;;;16.20;;
62925;SDS011;55732;52.248;-0.844;2023-05-07T04:45:01;23.90;;;14.80;;
62925;SDS011;55732;52.248;-0.844;2023-05-07T04:47:27;21.20;;;13.60;;
62925;SDS011;55732;52.248;-0.844;2023-05-07T04:49:52;25.70;;;16.00;;
62925;SDS011;55732;52.248;-0.844;2023-05-07T04:52:17;26.70;;;16.30;;
62925;SDS011;55732;52.248;-0.844;2023-05-07T04:54:43;23.40;;;15.60;;
62925;SDS011;55732;52.248;-0.844;2023-05-07T04:57:08;25.80;;;15.10;;
62925;SDS011;55732;52.248;-0.844;2023-05-07T04:59:34;24.00;;;15.40;;
62925;SDS011;55732;52.248;-0.844;2023-05-07T05:01:59;24.30;;;15.60;;
62925;SDS011;55732;52.248;-0.844;2023-05-07T05:04:24;24.00;;;15.40;;
62925;SDS011;55732;52.248;-0.844;2023-05-07T05:06:50;25.20;;;15.20;;
62925;SDS011;55732;52.248;-0.844;2023-05-07T05:09:16;25.20;;;16.90;;
62925;SDS011;55732;52.248;-0.844;2023-05-07T05:11:41;27.60;;;16.40;;
62925;SDS011;55732;52.248;-0.844;2023-05-07T05:14:06;21.20;;;14.70;;
62925;SDS011;55732;52.248;-0.844;2023-05-07T05:16:32;27.70;;;16.90;;
62925;SDS011;55732;52.248;-0.844;2023-05-07T05:18:58;23.40;;;15.60;;
62925;SDS011;55732;52.248;-0.844;2023-05-07T05:21:23;22.30;;;15.00;;
62925;SDS011;55732;52.248;-0.844;2023-05-07T05:23:49;23.50;;;16.20;;
62925;SDS011;55732;52.248;-0.844;2023-05-07T05:26:14;22.30;;;16.00;;
62925;SDS011;55732;52.248;-0.844;2023-05-07T05:28:39;22.20;;;15.20;;
62925;SDS011;55732;52.248;-0.844;2023-05-07T05:31:05;20.10;;;13.90;;
62925;SDS011;55732;52.248;-0.844;2023-05-07T05:33:31;16.50;;;13.60;;
62925;SDS011;55732;52.248;-0.844;2023-05-07T05:36:04;19.50;;;14.40;;
62925;SDS011;55732;52.248;-0.844;2023-05-07T05:38:30;19.00;;;13.90;;
62925;SDS011;55732;52.248;-0.844;2023-05-07T05:40:55;18.10;;;14.10;;
62925;SDS011;55732;52.248;-0.844;2023-05-07T05:43:20;19.20;;;14.00;;
62925;SDS011;55732;52.248;-0.844;2023-05-07T05:45:46;18.90;;;13.10;;
62925;SDS011;55732;52.248;-0.844;2023-05-07T05:48:11;14.50;;;11.90;;
62925;SDS011;55732;52.248;-0.844;2023-05-07T05:50:36;13.70;;;11.00;;
62925;SDS011;55732;52.248;-0.844;2023-05-07T05:53:02;11.50;;;9.80;;
62925;SDS011;55732;52.248;-0.844;2023-05-07T05:55:28;13.20;;;9.80;;
62925;SDS011;55732;52.248;-0.844;2023-05-07T05:57:59;13.00;;;10.70;;
62925;SDS011;55732;52.248;-0.844;2023-05-07T06:00:25;16.20;;;11.20;;
62925;SDS011;55732;52.248;-0.844;2023-05-07T06:02:51;13.80;;;11.90;;
62925;SDS011;55732;52.248;-0.844;2023-05-07T06:05:17;14.90;;;11.90;;
62925;SDS011;55732;52.248;-0.844;2023-05-07T06:07:42;15.70;;;12.90;;
62925;SDS011;55732;52.248;-0.844;2023-05-07T06:10:08;15.10;;;12.50;;
62925;SDS011;55732;52.248;-0.844;2023-05-07T06:12:33;19.10;;;13.70;;
62925;SDS011;55732;52.248;-0.844;2023-05-07T06:14:58;18.70;;;14.30;;
62925;SDS011;55732;52.248;-0.844;2023-05-07T06:17:24;17.40;;;13.80;;
62925;SDS011;55732;52.248;-0.844;2023-05-07T06:19:50;17.80;;;13.40;;
62925;SDS011;55732;52.248;-0.844;2023-05-07T06:22:18;19.50;;;13.80;;
62925;SDS011;55732;52.248;-0.844;2023-05-07T06:24:44;20.60;;;13.90;;
62925;SDS011;55732;52.248;-0.844;2023-05-07T06:27:10;15.60;;;12.10;;
62925;SDS011;55732;52.248;-0.844;2023-05-07T06:29:37;17.60;;;13.80;;
62925;SDS011;55732;52.248;-0.844;2023-05-07T06:32:06;14.90;;;13.30;;
62925;SDS011;55732;52.248;-0.844;2023-05-07T06:34:35;15.30;;;12.50;;
62925;SDS011;55732;52.248;-0.844;2023-05-07T06:37:02;16.20;;;12.10;;
62925;SDS011;55732;52.248;-0.844;2023-05-07T06:39:27;15.10;;;13.40;;
62925;SDS011;55732;52.248;-0.844;2023-05-07T06:41:53;19.10;;;14.70;;
62925;SDS011;55732;52.248;-0.844;2023-05-07T06:44:18;17.90;;;13.60;;
62925;SDS011;55732;52.248;-0.844;2023-05-07T06:46:43;17.50;;;12.90;;
62925;SDS011;55732;52.248;-0.844;2023-05-07T06:49:10;16.20;;;13.70;;
62925;SDS011;55732;52.248;-0.844;2023-05-07T06:51:37;15.60;;;12.80;;
62925;SDS011;55732;52.248;-0.844;2023-05-07T06:54:06;16.60;;;12.10;;
62925;SDS011;55732;52.248;-0.844;2023-05-07T06:56:32;12.80;;;11.40;;
62925;SDS011;55732;52.248;-0.844;2023-05-07T06:58:59;13.00;;;11.60;;
62925;SDS011;55732;52.248;-0.844;2023-05-07T07:01:25;15.00;;;11.40;;
62925;SDS011;55732;52.248;-0.844;2023-05-07T07:03:50;13.10;;;11.70;;
62925;SDS011;55732;52.248;-0.844;2023-05-07T07:06:16;12.60;;;11.30;;
62925;SDS011;55732;52.248;-0.844;2023-05-07T07:08:41;17.40;;;12.00;;
62925;SDS011;55732;52.248;-0.844;2023-05-07T07:11:07;14.00;;;10.80;;
62925;SDS011;55732;52.248;-0.844;2023-05-07T07:13:33;13.40;;;11.50;;
62925;SDS011;55732;52.248;-0.844;2023-05-07T07:15:59;14.50;;;11.00;;
62925;SDS011;55732;52.248;-0.844;2023-05-07T07:18:25;12.70;;;11.40;;
62925;SDS011;55732;52.248;-0.844;2023-05-07T07:23:18;12.70;;;11.10;;
62925;SDS011;55732;52.248;-0.844;2023-05-07T07:25:43;12.80;;;11.50;;
62925;SDS011;55732;52.248;-0.844;2023-05-07T07:28:09;12.40;;;11.20;;
62925;SDS011;55732;52.248;-0.844;2023-05-07T07:30:35;12.10;;;10.90;;
62925;SDS011;55732;52.248;-0.844;2023-05-07T07:33:01;12.60;;;11.30;;
62925;SDS011;55732;52.248;-0.844;2023-05-07T07:35:31;12.50;;;11.30;;
62925;SDS011;55732;52.248;-0.844;2023-05-07T07:37:57;12.10;;;10.90;;
62925;SDS011;55732;52.248;-0.844;2023-05-07T07:40:23;12.90;;;11.60;;
62925;SDS011;55732;52.248;-0.844;2023-05-07T07:42:48;13.00;;;11.20;;
62925;SDS011;55732;52.248;-0.844;2023-05-07T07:45:14;12.70;;;11.40;;
62925;SDS011;55732;52.248;-0.844;2023-05-07T07:47:40;11.90;;;10.60;;
62925;SDS011;55732;52.248;-0.844;2023-05-07T07:50:06;14.80;;;10.90;;
62925;SDS011;55732;52.248;-0.844;2023-05-07T07:52:32;12.00;;;10.80;;
62925;SDS011;55732;52.248;-0.844;2023-05-07T07:54:57;11.90;;;10.80;;
62925;SDS011;55732;52.248;-0.844;2023-05-07T07:57:23;13.70;;;10.70;;
62925;SDS011;55732;52.248;-0.844;2023-05-07T07:59:49;10.90;;;9.80;;
62925;SDS011;55732;52.248;-0.844;2023-05-07T08:02:15;10.20;;;9.20;;
62925;SDS011;55732;52.248;-0.844;2023-05-07T08:04:40;9.70;;;8.80;;
62925;SDS011;55732;52.248;-0.844;2023-05-07T08:07:06;10.20;;;9.10;;
62925;SDS011;55732;52.248;-0.844;2023-05-07T08:09:32;9.80;;;8.80;;
62925;SDS011;55732;52.248;-0.844;2023-05-07T08:11:57;10.00;;;9.00;;
62925;SDS011;55732;52.248;-0.844;2023-05-07T08:14:23;10.00;;;9.00;;
62925;SDS011;55732;52.248;-0.844;2023-05-07T08:16:48;9.80;;;8.40;;
62925;SDS011;55732;52.248;-0.844;2023-05-07T08:19:13;11.30;;;8.50;;
62925;SDS011;55732;52.248;-0.844;2023-05-07T08:21:39;9.00;;;8.10;;
62925;SDS011;55732;52.248;-0.844;2023-05-07T08:24:05;9.50;;;8.30;;
62925;SDS011;55732;52.248;-0.844;2023-05-07T08:26:31;9.90;;;8.90;;
62925;SDS011;55732;52.248;-0.844;2023-05-07T08:29:02;15.00;;;10.10;;
62925;SDS011;55732;52.248;-0.844;2023-05-07T08:31:27;10.30;;;9.20;;
62925;SDS011;55732;52.248;-0.844;2023-05-07T08:33:53;10.70;;;9.20;;
62925;SDS011;55732;52.248;-0.844;2023-05-07T08:36:18;10.20;;;8.80;;
62925;SDS011;55732;52.248;-0.844;2023-05-07T08:38:46;9.20;;;8.20;;
62925;SDS011;55732;52.248;-0.844;2023-05-07T08:41:11;9.10;;;8.20;;
62925;SDS011;55732;52.248;-0.844;2023-05-07T08:43:37;10.10;;;8.40;;
62925;SDS011;55732;52.248;-0.844;2023-05-07T08:46:12;8.20;;;7.40;;
62925;SDS011;55732;52.248;-0.844;2023-05-07T08:48:42;8.90;;;7.90;;
62925;SDS011;55732;52.248;-0.844;2023-05-07T08:51:08;8.40;;;7.50;;
62925;SDS011;55732;52.248;-0.844;2023-05-07T08:53:37;9.00;;;7.30;;
62925;SDS011;55732;52.248;-0.844;2023-05-07T08:56:11;8.40;;;7.50;;
62925;SDS011;55732;52.248;-0.844;2023-05-07T08:58:37;12.10;;;8.00;;
62925;SDS011;55732;52.248;-0.844;2023-05-07T09:01:03;10.10;;;8.00;;
62925;SDS011;55732;52.248;-0.844;2023-05-07T09:03:34;9.30;;;8.10;;
62925;SDS011;55732;52.248;-0.844;2023-05-07T09:05:59;9.50;;;8.10;;
62925;SDS011;55732;52.248;-0.844;2023-05-07T09:08:26;8.00;;;7.10;;
62925;SDS011;55732;52.248;-0.844;2023-05-07T09:10:52;9.40;;;7.60;;
62925;SDS011;55732;52.248;-0.844;2023-05-07T09:13:18;8.90;;;7.90;;
62925;SDS011;55732;52.248;-0.844;2023-05-07T09:15:44;10.50;;;8.20;;
62925;SDS011;55732;52.248;-0.844;2023-05-07T09:18:10;12.10;;;7.80;;
62925;SDS011;55732;52.248;-0.844;2023-05-07T09:20:39;8.90;;;7.90;;
62925;SDS011;55732;52.248;-0.844;2023-05-07T09:23:05;8.70;;;7.50;;
62925;SDS011;55732;52.248;-0.844;2023-05-07T09:25:35;9.50;;;7.30;;
62925;SDS011;55732;52.248;-0.844;2023-05-07T09:28:02;9.90;;;7.90;;
62925;SDS011;55732;52.248;-0.844;2023-05-07T09:30:32;9.30;;;8.00;;
62925;SDS011;55732;52.248;-0.844;2023-05-07T09:32:58;8.40;;;7.50;;
62925;SDS011;55732;52.248;-0.844;2023-05-07T09:35:25;9.00;;;7.40;;
62925;SDS011;55732;52.248;-0.844;2023-05-07T09:37:58;9.30;;;8.10;;
62925;SDS011;55732;52.248;-0.844;2023-05-07T09:40:26;11.70;;;7.70;;
62925;SDS011;55732;52.248;-0.844;2023-05-07T09:42:53;9.10;;;8.10;;
62925;SDS011;55732;52.248;-0.844;2023-05-07T09:45:25;11.40;;;8.60;;
62925;SDS011;55732;52.248;-0.844;2023-05-07T09:47:53;10.50;;;8.40;;
62925;SDS011;55732;52.248;-0.844;2023-05-07T09:50:22;10.20;;;7.90;;
62925;SDS011;55732;52.248;-0.844;2023-05-07T09:52:52;8.30;;;6.70;;
62925;SDS011;55732;52.248;-0.844;2023-05-07T09:57:45;7.90;;;6.80;;
62925;SDS011;55732;52.248;-0.844;2023-05-07T10:00:15;9.80;;;7.30;;
62925;SDS011;55732;52.248;-0.844;2023-05-07T10:02:44;10.10;;;8.00;;
62925;SDS011;55732;52.248;-0.844;2023-05-07T10:05:13;8.10;;;5.90;;
62925;SDS011;55732;52.248;-0.844;2023-05-07T10:07:39;11.20;;;7.40;;
62925;SDS011;55732;52.248;-0.844;2023-05-07T10:10:06;9.60;;;7.50;;
62925;SDS011;55732;52.248;-0.844;2023-05-07T10:12:32;9.90;;;7.40;;
62925;SDS011;55732;52.248;-0.844;2023-05-07T10:15:05;8.10;;;7.20;;
62925;SDS011;55732;52.248;-0.844;2023-05-07T10:17:32;10.70;;;7.60;;
62925;SDS011;55732;52.248;-0.844;2023-05-07T10:20:02;8.70;;;6.60;;
62925;SDS011;55732;52.248;-0.844;2023-05-07T10:22:30;8.10;;;6.20;;
62925;SDS011;55732;52.248;-0.844;2023-05-07T10:25:02;11.40;;;6.70;;
62925;SDS011;55732;52.248;-0.844;2023-05-07T10:27:31;8.10;;;6.10;;
62925;SDS011;55732;52.248;-0.844;2023-05-07T10:32:37;7.70;;;5.70;;
62925;SDS011;55732;52.248;-0.844;2023-05-07T10:35:06;8.30;;;5.90;;
62925;SDS011;55732;52.248;-0.844;2023-05-07T10:37:39;7.60;;;6.30;;
62925;SDS011;55732;52.248;-0.844;2023-05-07T10:40:05;8.00;;;5.60;;
62925;SDS011;55732;52.248;-0.844;2023-05-07T10:42:32;10.30;;;5.30;;
62925;SDS011;55732;52.248;-0.844;2023-05-07T10:44:57;7.20;;;5.20;;
62925;SDS011;55732;52.248;-0.844;2023-05-07T10:47:23;8.50;;;5.00;;
62925;SDS011;55732;52.248;-0.844;2023-05-07T10:52:14;10.90;;;5.20;;
62925;SDS011;55732;52.248;-0.844;2023-05-07T10:54:41;8.10;;;5.60;;
62925;SDS011;55732;52.248;-0.844;2023-05-07T11:00:48;7.60;;;5.50;;
62925;SDS011;55732;52.248;-0.844;2023-05-07T11:05:25;10.60;;;6.50;;
62925;SDS011;55732;52.248;-0.844;2023-05-07T11:07:59;6.50;;;5.40;;
62925;SDS011;55732;52.248;-0.844;2023-05-07T11:13:14;7.90;;;4.70;;
62925;SDS011;55732;52.248;-0.844;2023-05-07T11:15:40;7.30;;;4.80;;
62925;SDS011;55732;52.248;-0.844;2023-05-07T11:18:08;6.70;;;4.40;;
62925;SDS011;55732;52.248;-0.844;2023-05-07T11:26:07;9.90;;;3.60;;
62925;SDS011;55732;52.248;-0.844;2023-05-07T11:28:41;5.90;;;3.40;;
62925;SDS011;55732;52.248;-0.844;2023-05-07T11:31:08;5.10;;;3.20;;
62925;SDS011;55732;52.248;-0.844;2023-05-07T11:33:34;6.70;;;4.00;;
62925;SDS011;55732;52.248;-0.844;2023-05-07T11:36:01;6.50;;;3.80;;
62925;SDS011;55732;52.248;-0.844;2023-05-07T11:38:28;5.80;;;4.10;;
62925;SDS011;55732;52.248;-0.844;2023-05-07T11:43:21;5.10;;;3.50;;
62925;SDS011;55732;52.248;-0.844;2023-05-07T11:45:47;5.00;;;3.40;;
62925;SDS011;55732;52.248;-0.844;2023-05-07T11:48:14;5.30;;;3.30;;
62925;SDS011;55732;52.248;-0.844;2023-05-07T11:50:53;5.40;;;3.00;;
62925;SDS011;55732;52.248;-0.844;2023-05-07T11:53:25;4.50;;;2.80;;
62925;SDS011;55732;52.248;-0.844;2023-05-07T11:55:52;5.90;;;2.90;;
62925;SDS011;55732;52.248;-0.844;2023-05-07T11:58:21;5.20;;;2.80;;
62925;SDS011;55732;52.248;-0.844;2023-05-07T12:00:51;3.60;;;2.50;;
62925;SDS011;55732;52.248;-0.844;2023-05-07T12:03:18;4.90;;;2.60;;
62925;SDS011;55732;52.248;-0.844;2023-05-07T12:05:44;7.60;;;2.80;;
62925;SDS011;55732;52.248;-0.844;2023-05-07T12:08:16;2.60;;;2.30;;
62925;SDS011;55732;52.248;-0.844;2023-05-07T12:10:43;7.90;;;2.20;;
62925;SDS011;55732;52.248;-0.844;2023-05-07T12:13:21;4.70;;;2.50;;
62925;SDS011;55732;52.248;-0.844;2023-05-07T12:15:51;3.50;;;2.30;;
62925;SDS011;55732;52.248;-0.844;2023-05-07T12:18:17;4.30;;;2.30;;
62925;SDS011;55732;52.248;-0.844;2023-05-07T12:20:43;3.90;;;2.10;;
62925;SDS011;55732;52.248;-0.844;2023-05-07T12:23:10;4.00;;;2.20;;
62925;SDS011;55732;52.248;-0.844;2023-05-07T12:25:36;5.20;;;2.30;;
62925;SDS011;55732;52.248;-0.844;2023-05-07T12:28:02;3.60;;;2.00;;
62925;SDS011;55732;52.248;-0.844;2023-05-07T12:30:30;4.30;;;2.60;;
62925;SDS011;55732;52.248;-0.844;2023-05-07T12:33:03;5.70;;;2.40;;
62925;SDS011;55732;52.248;-0.844;2023-05-07T12:35:29;4.70;;;2.40;;
62925;SDS011;55732;52.248;-0.844;2023-05-07T12:37:55;3.40;;;2.20;;
62925;SDS011;55732;52.248;-0.844;2023-05-07T12:40:24;5.30;;;2.70;;
62925;SDS011;55732;52.248;-0.844;2023-05-07T12:42:52;5.00;;;2.60;;
62925;SDS011;55732;52.248;-0.844;2023-05-07T12:45:21;4.90;;;2.10;;
62925;SDS011;55732;52.248;-0.844;2023-05-07T12:47:47;7.70;;;2.50;;
62925;SDS011;55732;52.248;-0.844;2023-05-07T12:50:13;5.30;;;2.10;;
62925;SDS011;55732;52.248;-0.844;2023-05-07T12:52:39;5.60;;;2.30;;
62925;SDS011;55732;52.248;-0.844;2023-05-07T12:55:06;4.60;;;2.00;;
62925;SDS011;55732;52.248;-0.844;2023-05-07T12:57:37;3.40;;;2.20;;
62925;SDS011;55732;52.248;-0.844;2023-05-07T13:00:09;3.70;;;1.90;;
62925;SDS011;55732;52.248;-0.844;2023-05-07T13:02:37;8.20;;;2.20;;
62925;SDS011;55732;52.248;-0.844;2023-05-07T13:05:03;5.50;;;2.30;;
62925;SDS011;55732;52.248;-0.844;2023-05-07T13:07:29;3.50;;;2.10;;
62925;SDS011;55732;52.248;-0.844;2023-05-07T13:09:54;3.70;;;2.00;;
62925;SDS011;55732;52.248;-0.844;2023-05-07T13:12:20;5.80;;;1.90;;
62925;SDS011;55732;52.248;-0.844;2023-05-07T13:14:45;3.40;;;2.00;;
62925;SDS011;55732;52.248;-0.844;2023-05-07T13:17:10;2.60;;;1.70;;
62925;SDS011;55732;52.248;-0.844;2023-05-07T13:19:36;2.80;;;1.90;;
62925;SDS011;55732;52.248;-0.844;2023-05-07T13:22:02;2.40;;;1.60;;
62925;SDS011;55732;52.248;-0.844;2023-05-07T13:24:28;2.60;;;1.40;;
62925;SDS011;55732;52.248;-0.844;2023-05-07T13:26:54;4.70;;;1.70;;
62925;SDS011;55732;52.248;-0.844;2023-05-07T13:29:19;5.60;;;2.30;;
62925;SDS011;55732;52.248;-0.844;2023-05-07T13:31:47;2.90;;;1.80;;
62925;SDS011;55732;52.248;-0.844;2023-05-07T13:34:12;4.20;;;2.00;;
62925;SDS011;55732;52.248;-0.844;2023-05-07T13:36:37;4.00;;;1.80;;
62925;SDS011;55732;52.248;-0.844;2023-05-07T13:39:04;2.80;;;1.80;;
62925;SDS011;55732;52.248;-0.844;2023-05-07T13:41:31;3.80;;;2.00;;
62925;SDS011;55732;52.248;-0.844;2023-05-07T13:43:56;9.30;;;2.40;;
62925;SDS011;55732;52.248;-0.844;2023-05-07T13:46:21;3.70;;;1.70;;
62925;SDS011;55732;52.248;-0.844;2023-05-07T13:48:47;5.30;;;1.80;;
62925;SDS011;55732;52.248;-0.844;2023-05-07T13:51:12;5.00;;;2.00;;
62925;SDS011;55732;52.248;-0.844;2023-05-07T13:53:38;4.30;;;1.90;;
62925;SDS011;55732;52.248;-0.844;2023-05-07T13:56:03;3.80;;;1.80;;
62925;SDS011;55732;52.248;-0.844;2023-05-07T13:58:30;4.80;;;2.00;;
62925;SDS011;55732;52.248;-0.844;2023-05-07T14:00:55;2.40;;;1.60;;
62925;SDS011;55732;52.248;-0.844;2023-05-07T14:03:21;3.60;;;1.80;;
62925;SDS011;55732;52.248;-0.844;2023-05-07T14:05:46;3.70;;;1.90;;
62925;SDS011;55732;52.248;-0.844;2023-05-07T14:08:12;4.90;;;2.00;;
62925;SDS011;55732;52.248;-0.844;2023-05-07T14:10:39;4.00;;;1.90;;
62925;SDS011;55732;52.248;-0.844;2023-05-07T14:13:05;3.20;;;1.70;;
62925;SDS011;55732;52.248;-0.844;2023-05-07T14:15:31;3.50;;;1.40;;
62925;SDS011;55732;52.248;-0.844;2023-05-07T14:17:58;3.70;;;1.80;;
62925;SDS011;55732;52.248;-0.844;2023-05-07T14:20:24;3.20;;;1.60;;
62925;SDS011;55732;52.248;-0.844;2023-05-07T14:22:50;3.20;;;1.60;;
62925;SDS011;55732;52.248;-0.844;2023-05-07T14:25:15;2.00;;;1.60;;
62925;SDS011;55732;52.248;-0.844;2023-05-07T14:27:41;3.40;;;1.60;;
62925;SDS011;55732;52.248;-0.844;2023-05-07T14:30:06;2.30;;;1.50;;
62925;SDS011;55732;52.248;-0.844;2023-05-07T14:32:33;2.60;;;1.50;;
62925;SDS011;55732;52.248;-0.844;2023-05-07T14:34:59;2.80;;;1.50;;
62925;SDS011;55732;52.248;-0.844;2023-05-07T14:37:24;3.90;;;1.60;;
62925;SDS011;55732;52.248;-0.844;2023-05-07T14:39:50;1.80;;;1.40;;
62925;SDS011;55732;52.248;-0.844;2023-05-07T14:42:15;1.40;;;1.30;;
62925;SDS011;55732;52.248;-0.844;2023-05-07T14:44:41;3.70;;;1.60;;
62925;SDS011;55732;52.248;-0.844;2023-05-07T14:47:07;2.30;;;1.60;;